createdAt,value
2019-03-18T00:02:20.919Z,100222.80
2019-03-18T00:04:56.995Z,100228.28
2019-03-18T00:07:25.513Z,100232.88
2019-03-18T00:09:54.122Z,100238.41
2019-03-18T00:12:22.735Z,100240.20
2019-03-18T00:15:00.734Z,100236.05
2019-03-18T00:17:21.717Z,100248.09
2019-03-18T00:19:50.354Z,100242.53
2019-03-18T00:22:19.000Z,100247.30
2019-03-18T00:24:47.619Z,100253.90
2019-03-18T00:27:16.208Z,100253.61
2019-03-18T00:29:44.819Z,100260.89
2019-03-18T00:32:13.423Z,100253.38
2019-03-18T00:34:42.019Z,100246.09
2019-03-18T00:37:10.628Z,100250.53
2019-03-18T00:39:39.259Z,100258.13
2019-03-18T00:42:07.913Z,100255.88
2019-03-18T00:44:36.624Z,100248.25
2019-03-18T00:47:05.159Z,100255.05
2019-03-18T00:49:33.837Z,100248.77
2019-03-18T00:52:02.499Z,100256.05
2019-03-18T00:54:31.101Z,100254.62
2019-03-18T00:56:59.752Z,100259.82
2019-03-18T00:59:28.355Z,100258.14
2019-03-18T01:01:56.989Z,100269.58
2019-03-18T01:04:25.603Z,100272.30
2019-03-18T01:06:54.220Z,100269.95
2019-03-18T01:09:22.829Z,100270.50
2019-03-18T01:11:51.440Z,100276.78
2019-03-18T01:14:20.055Z,100275.41
2019-03-18T01:16:48.706Z,100272.38
2019-03-18T01:19:17.301Z,100266.21
2019-03-18T01:21:45.910Z,100265.97
2019-03-18T01:24:14.602Z,100270.73
2019-03-18T01:26:43.301Z,100269.58
2019-03-18T01:29:11.902Z,100268.66
2019-03-18T01:31:40.527Z,100259.90
2019-03-18T01:34:09.134Z,100267.82
2019-03-18T01:36:37.795Z,100263.81
2019-03-18T01:39:07.359Z,100265.45
2019-03-18T01:41:35.947Z,100259.48
2019-03-18T01:44:04.622Z,100258.73
2019-03-18T01:46:33.311Z,100261.81
2019-03-18T01:49:01.998Z,100269.05
2019-03-18T01:51:30.636Z,100269.89
2019-03-18T01:53:59.264Z,100269.16
2019-03-18T01:56:27.850Z,100266.57
2019-03-18T01:58:56.478Z,100265.25
2019-03-18T02:01:25.149Z,100274.44
2019-03-18T02:03:53.792Z,100277.41
2019-03-18T02:06:22.388Z,100280.09
2019-03-18T02:08:51.001Z,100282.61
2019-03-18T02:11:19.595Z,100284.73
2019-03-18T02:13:48.219Z,100284.21
2019-03-18T02:16:16.814Z,100287.16
2019-03-18T02:18:45.413Z,100280.73
2019-03-18T02:21:14.013Z,100277.52
2019-03-18T02:23:42.663Z,100276.99
2019-03-18T02:26:11.300Z,100274.00
2019-03-18T02:28:39.907Z,100276.68
2019-03-18T02:31:08.572Z,100274.17
2019-03-18T02:33:37.185Z,100272.62
2019-03-18T02:36:05.795Z,100273.16
2019-03-18T02:38:34.398Z,100277.27
2019-03-18T02:41:03.005Z,100272.15
2019-03-18T02:43:31.623Z,100281.12
2019-03-18T02:46:09.792Z,100289.04
2019-03-18T02:48:30.633Z,100291.10
2019-03-18T02:50:59.258Z,100294.10
2019-03-18T02:53:27.862Z,100301.33
2019-03-18T02:55:56.483Z,100292.83
2019-03-18T02:58:25.065Z,100298.79
2019-03-18T03:00:53.666Z,100293.95
2019-03-18T03:03:22.257Z,100294.04
2019-03-18T03:05:50.881Z,100300.20
2019-03-18T03:08:19.474Z,100306.80
2019-03-18T03:10:48.096Z,100298.89
2019-03-18T03:13:16.699Z,100295.08
2019-03-18T03:15:45.393Z,100303.96
2019-03-18T03:18:13.991Z,100309.72
2019-03-18T03:20:42.602Z,100322.80
2019-03-18T03:23:11.316Z,100319.48
2019-03-18T03:25:40.334Z,100315.84
2019-03-18T03:28:08.922Z,100317.05
2019-03-18T03:30:37.521Z,100328.99
2019-03-18T03:33:06.132Z,100327.16
2019-03-18T03:35:34.714Z,100325.75
2019-03-18T03:38:03.312Z,100338.03
2019-03-18T03:40:31.998Z,100338.03
2019-03-18T03:43:00.615Z,100344.16
2019-03-18T03:45:29.288Z,100350.76
2019-03-18T03:47:57.911Z,100352.42
2019-03-18T03:50:26.532Z,100346.94
2019-03-18T03:52:55.432Z,100348.73
2019-03-18T03:55:24.009Z,100352.03
2019-03-18T03:57:52.688Z,100354.80
2019-03-18T04:00:21.364Z,100361.75
2019-03-18T04:02:50.035Z,100361.75
2019-03-18T04:05:18.621Z,100356.47
2019-03-18T04:07:47.258Z,100356.31
2019-03-18T04:10:15.959Z,100353.99
2019-03-18T04:12:44.550Z,100363.97
2019-03-18T04:15:13.240Z,100360.11
2019-03-18T04:17:41.912Z,100357.76
2019-03-18T04:20:10.693Z,100361.36
2019-03-18T04:22:39.290Z,100353.39
2019-03-18T04:25:08.264Z,100357.95
2019-03-18T04:27:36.861Z,100359.76
2019-03-18T04:30:06.408Z,100361.64
2019-03-18T04:32:35.030Z,100352.75
2019-03-18T04:35:03.791Z,100357.68
2019-03-18T04:37:32.638Z,100351.34
2019-03-18T04:40:01.240Z,100359.72
2019-03-18T04:42:29.856Z,100362.64
2019-03-18T04:44:58.490Z,100369.69
2019-03-18T04:47:27.101Z,100373.77
2019-03-18T04:49:55.801Z,100375.41
2019-03-18T04:52:24.444Z,100375.54
2019-03-18T04:54:53.353Z,100396.27
2019-03-18T04:57:22.006Z,100391.16
2019-03-18T04:59:50.634Z,100390.12
2019-03-18T05:02:19.261Z,100395.67
2019-03-18T05:04:47.892Z,100386.51
2019-03-18T05:07:16.497Z,100392.27
2019-03-18T05:09:45.091Z,100388.58
2019-03-18T05:12:13.700Z,100390.59
2019-03-18T05:14:42.317Z,100397.84
2019-03-18T05:17:10.938Z,100408.53
2019-03-18T05:19:39.547Z,100411.48
2019-03-18T05:22:08.237Z,100415.30
2019-03-18T05:24:36.825Z,100421.50
2019-03-18T05:27:05.520Z,100428.31
2019-03-18T05:29:34.196Z,100421.34
2019-03-18T05:32:05.125Z,100419.59
2019-03-18T05:34:33.214Z,100422.04
2019-03-18T05:37:01.879Z,100421.03
2019-03-18T05:39:30.571Z,100430.95
2019-03-18T05:41:59.197Z,100426.59
2019-03-18T05:44:27.794Z,100432.77
2019-03-18T05:46:56.423Z,100437.17
2019-03-18T05:49:40.262Z,100448.99
2019-03-18T05:52:08.883Z,100451.36
2019-03-18T05:54:37.500Z,100451.84
2019-03-18T05:57:06.109Z,100459.16
2019-03-18T05:59:34.705Z,100461.28
2019-03-18T06:02:03.431Z,100459.80
2019-03-18T06:04:32.094Z,100463.92
2019-03-18T06:07:00.899Z,100454.41
2019-03-18T06:09:29.492Z,100447.98
2019-03-18T06:11:58.120Z,100447.15
2019-03-18T06:14:26.745Z,100458.53
2019-03-18T06:16:55.397Z,100466.91
2019-03-18T06:19:24.029Z,100478.28
2019-03-18T06:21:52.637Z,100473.48
2019-03-18T06:24:21.252Z,100484.09
2019-03-18T06:26:49.908Z,100490.42
2019-03-18T06:29:18.520Z,100490.50
2019-03-18T06:31:47.171Z,100494.56
2019-03-18T06:34:15.788Z,100491.78
2019-03-18T06:36:44.401Z,100496.30
2019-03-18T06:39:13.009Z,100510.90
2019-03-18T06:41:41.656Z,100508.09
2019-03-18T06:44:10.232Z,100504.49
2019-03-18T06:46:38.845Z,100509.66
2019-03-18T06:49:07.453Z,100503.95
2019-03-18T06:51:36.165Z,100511.84
2019-03-18T06:54:04.868Z,100513.17
2019-03-18T06:56:33.485Z,100515.20
2019-03-18T06:59:02.125Z,100518.02
2019-03-18T07:01:30.724Z,100511.91
2019-03-18T07:03:59.338Z,100514.98
2019-03-18T07:06:27.947Z,100518.87
2019-03-18T07:08:56.569Z,100515.84
2019-03-18T07:11:25.173Z,100517.69
2019-03-18T07:13:53.799Z,100518.59
2019-03-18T07:16:22.417Z,100519.82
2019-03-18T07:18:51.045Z,100516.08
2019-03-18T07:21:19.642Z,100516.23
2019-03-18T07:23:48.250Z,100528.83
2019-03-18T07:26:16.843Z,100528.86
2019-03-18T07:28:45.454Z,100535.67
2019-03-18T07:31:14.111Z,100533.11
2019-03-18T07:33:42.711Z,100540.30
2019-03-18T07:36:11.370Z,100541.98
2019-03-18T07:38:40.023Z,100544.46
2019-03-18T07:41:08.636Z,100532.75
2019-03-18T07:43:37.258Z,100546.67
2019-03-18T07:46:05.876Z,100551.77
2019-03-18T07:48:34.495Z,100564.25
2019-03-18T07:51:03.117Z,100565.70
2019-03-18T07:53:31.921Z,100577.61
2019-03-18T07:56:00.527Z,100576.52
2019-03-18T07:58:29.131Z,100582.20
2019-03-18T08:00:57.907Z,100577.52
2019-03-18T08:03:26.752Z,100578.70
2019-03-18T08:05:55.387Z,100583.92
2019-03-18T08:08:23.996Z,100588.20
2019-03-18T08:10:52.641Z,100594.13
2019-03-18T08:13:21.365Z,100597.55
2019-03-18T08:15:49.985Z,100607.69
2019-03-18T08:18:18.577Z,100608.20
2019-03-18T08:20:47.223Z,100609.73
2019-03-18T08:23:15.854Z,100613.75
2019-03-18T08:25:44.530Z,100613.75
2019-03-18T08:28:13.167Z,100624.92
2019-03-18T08:30:41.773Z,100627.44
2019-03-18T08:33:10.398Z,100627.59
2019-03-18T08:35:39.000Z,100635.11
2019-03-18T08:38:07.628Z,100632.91
2019-03-18T08:40:36.313Z,100643.05
2019-03-18T08:43:05.002Z,100640.78
2019-03-18T08:45:33.618Z,100635.66
2019-03-18T08:48:02.231Z,100641.16
2019-03-18T08:50:30.823Z,100634.91
2019-03-18T08:52:59.475Z,100649.75
2019-03-18T08:55:28.248Z,100649.04
2019-03-18T08:57:56.873Z,100650.09
2019-03-18T09:00:25.477Z,100652.47
2019-03-18T09:02:56.341Z,100662.94
2019-03-18T09:05:24.486Z,100648.48
2019-03-18T09:07:53.117Z,100653.63
2019-03-18T09:10:21.718Z,100663.13
2019-03-18T09:12:50.381Z,100661.63
2019-03-18T09:15:19.099Z,100666.65
2019-03-18T09:17:47.747Z,100670.13
2019-03-18T09:20:16.611Z,100678.80
2019-03-18T09:22:45.230Z,100675.30
2019-03-18T09:25:14.095Z,100676.83
2019-03-18T09:27:42.778Z,100687.45
2019-03-18T09:30:12.163Z,100690.78
2019-03-18T09:32:40.744Z,100689.62
2019-03-18T09:35:09.423Z,100683.95
2019-03-18T09:37:38.128Z,100694.56
2019-03-18T09:40:06.877Z,100692.75
2019-03-18T09:42:35.472Z,100695.59
2019-03-18T09:45:04.453Z,100705.88
2019-03-18T09:47:33.080Z,100703.88
2019-03-18T09:50:01.708Z,100713.05
2019-03-18T09:52:30.378Z,100709.22
2019-03-18T09:54:58.942Z,100706.25
2019-03-18T09:57:27.586Z,100704.72
2019-03-18T09:59:56.237Z,100707.20
2019-03-18T10:02:24.854Z,100718.66
2019-03-18T10:04:53.470Z,100725.00
2019-03-18T10:07:22.091Z,100720.48
2019-03-18T10:09:50.721Z,100727.42
2019-03-18T10:12:19.426Z,100728.28
2019-03-18T10:14:47.989Z,100728.16
2019-03-18T10:17:16.611Z,100727.49
2019-03-18T10:19:45.251Z,100735.94
2019-03-18T10:22:13.925Z,100734.77
2019-03-18T10:24:42.534Z,100736.23
2019-03-18T10:27:11.164Z,100736.83
2019-03-18T10:29:39.745Z,100745.42
2019-03-18T10:32:08.380Z,100739.58
2019-03-18T10:34:36.986Z,100740.89
2019-03-18T10:37:05.653Z,100747.07
2019-03-18T10:39:34.261Z,100736.59
2019-03-18T10:42:02.943Z,100732.70
2019-03-18T10:44:31.529Z,100739.42
2019-03-18T10:47:00.150Z,100736.81
2019-03-18T10:49:28.772Z,100730.56
2019-03-18T10:51:57.449Z,100738.58
2019-03-18T10:54:30.929Z,100734.60
2019-03-18T10:56:56.432Z,100735.61
2019-03-18T10:59:25.065Z,100733.79
2019-03-18T11:01:53.721Z,100731.25
2019-03-18T11:04:22.315Z,100734.42
2019-03-18T11:06:51.013Z,100739.59
2019-03-18T11:09:19.705Z,100729.58
2019-03-18T11:11:48.346Z,100733.10
2019-03-18T11:14:16.977Z,100725.87
2019-03-18T11:16:45.587Z,100717.22
2019-03-18T11:19:14.302Z,100730.53
2019-03-18T11:21:42.939Z,100733.98
2019-03-18T11:24:11.558Z,100745.11
2019-03-18T11:26:40.269Z,100728.88
2019-03-18T11:29:08.892Z,100735.00
2019-03-18T11:31:37.539Z,100730.27
2019-03-18T11:34:06.215Z,100739.18
2019-03-18T11:36:34.841Z,100727.82
2019-03-18T11:39:03.798Z,100736.42
2019-03-18T11:41:32.470Z,100760.38
2019-03-18T11:44:01.098Z,100751.73
2019-03-18T11:46:29.736Z,100753.33
2019-03-18T11:48:58.336Z,100756.53
2019-03-18T11:51:26.946Z,100754.01
2019-03-18T11:53:55.652Z,100744.14
2019-03-18T11:56:24.368Z,100738.26
2019-03-18T11:58:53.060Z,100744.77
2019-03-18T12:01:21.674Z,100746.82
2019-03-18T12:03:50.285Z,100762.48
2019-03-18T12:06:18.890Z,100759.55
2019-03-18T12:08:47.507Z,100760.55
2019-03-18T12:11:16.109Z,100750.87
2019-03-18T12:13:44.735Z,100731.69
2019-03-18T12:16:13.373Z,100719.88
2019-03-18T12:18:41.988Z,100719.23
2019-03-18T12:21:10.595Z,100729.95
2019-03-18T12:23:39.217Z,100726.64
2019-03-18T12:26:07.846Z,100742.16
2019-03-18T12:28:36.555Z,100736.01
2019-03-18T12:31:05.150Z,100731.72
2019-03-18T12:33:33.843Z,100732.22
2019-03-18T12:36:02.456Z,100736.05
2019-03-18T12:38:31.093Z,100741.22
2019-03-18T12:40:59.802Z,100744.69
2019-03-18T12:43:28.453Z,100745.06
2019-03-18T12:45:57.069Z,100753.60
2019-03-18T12:48:25.697Z,100763.75
2019-03-18T12:50:56.377Z,100753.61
2019-03-18T12:53:24.668Z,100749.63
2019-03-18T12:55:53.266Z,100742.77
2019-03-18T12:58:21.889Z,100735.63
2019-03-18T13:00:50.630Z,100740.94
2019-03-18T13:03:19.287Z,100747.09
2019-03-18T13:05:47.895Z,100750.44
2019-03-18T13:08:16.606Z,100748.46
2019-03-18T13:10:45.258Z,100739.30
2019-03-18T13:13:13.830Z,100739.27
2019-03-18T13:15:42.569Z,100744.89
2019-03-18T13:18:11.183Z,100739.71
2019-03-18T13:20:39.904Z,100737.98
2019-03-18T13:23:08.577Z,100739.87
2019-03-18T13:25:37.218Z,100743.20
2019-03-18T13:28:05.829Z,100741.73
2019-03-18T13:30:34.467Z,100749.08
2019-03-18T13:33:03.084Z,100752.37
2019-03-18T13:35:31.688Z,100768.99
2019-03-18T13:38:00.354Z,100771.20
2019-03-18T13:40:28.978Z,100778.99
2019-03-18T13:42:57.986Z,100765.02
2019-03-18T13:45:26.596Z,100776.73
2019-03-18T13:47:55.191Z,100775.23
2019-03-18T13:50:23.886Z,100771.08
2019-03-18T13:52:52.663Z,100775.91
2019-03-18T13:55:21.357Z,100764.28
2019-03-18T13:57:49.950Z,100761.24
2019-03-18T14:00:18.723Z,100761.42
2019-03-18T14:02:47.376Z,100762.59
2019-03-18T14:05:16.130Z,100765.77
2019-03-18T14:07:44.730Z,100770.07
2019-03-18T14:10:14.138Z,100768.04
2019-03-18T14:12:42.986Z,100764.00
2019-03-18T14:15:13.469Z,100766.33
2019-03-18T14:17:42.152Z,100764.97
2019-03-18T14:20:12.504Z,100759.27
2019-03-18T14:22:41.116Z,100760.02
2019-03-18T14:25:10.071Z,100765.86
2019-03-18T14:27:38.698Z,100763.64
2019-03-18T14:30:09.922Z,100764.27
2019-03-18T14:32:38.541Z,100762.51
2019-03-18T14:35:07.635Z,100769.44
2019-03-18T14:37:36.292Z,100777.94
2019-03-18T14:40:05.951Z,100773.28
2019-03-18T14:42:34.591Z,100766.95
2019-03-18T14:45:03.239Z,100768.36
2019-03-18T14:47:31.960Z,100764.08
2019-03-18T14:50:00.621Z,100765.10
2019-03-18T14:52:29.233Z,100770.72
2019-03-18T14:54:57.852Z,100766.98
2019-03-18T14:57:26.468Z,100771.03
2019-03-18T14:59:56.366Z,100770.41
2019-03-18T15:02:25.020Z,100773.27
2019-03-18T15:04:53.596Z,100774.45
2019-03-18T15:07:22.312Z,100775.84
2019-03-18T15:09:50.908Z,100779.28
2019-03-18T15:12:19.543Z,100777.52
2019-03-18T15:14:48.178Z,100777.80
2019-03-18T15:17:16.807Z,100780.31
2019-03-18T15:19:45.417Z,100792.48
2019-03-18T15:22:14.037Z,100782.85
2019-03-18T15:24:42.636Z,100783.32
2019-03-18T15:27:11.340Z,100793.13
2019-03-18T15:29:39.955Z,100805.23
2019-03-18T15:32:08.570Z,100818.91
2019-03-18T15:34:37.205Z,100822.91
2019-03-18T15:37:05.904Z,100823.41
2019-03-18T15:39:34.485Z,100828.62
2019-03-18T15:42:03.134Z,100821.92
2019-03-18T15:44:31.738Z,100825.56
2019-03-18T15:47:00.334Z,100833.74
2019-03-18T15:49:28.923Z,100838.95
2019-03-18T15:52:10.048Z,100836.13
2019-03-18T15:54:27.919Z,100837.85
2019-03-18T15:56:56.516Z,100839.33
2019-03-18T15:59:25.281Z,100838.09
2019-03-18T16:01:53.886Z,100839.80
2019-03-18T16:06:50.051Z,100837.50
2019-03-18T16:09:18.691Z,100830.16
2019-03-18T16:11:47.301Z,100838.15
2019-03-18T16:14:15.934Z,100840.14
2019-03-18T16:16:44.626Z,100844.34
2019-03-18T16:19:13.541Z,100847.70
2019-03-18T16:21:42.087Z,100851.31
2019-03-18T16:24:10.801Z,100859.30
2019-03-18T16:26:39.421Z,100855.59
2019-03-18T16:29:08.038Z,100853.85
2019-03-18T16:31:36.664Z,100848.69
2019-03-18T16:34:05.298Z,100848.02
2019-03-18T16:36:34.003Z,100849.33
2019-03-18T16:39:02.723Z,100855.66
2019-03-18T16:41:31.336Z,100856.11
2019-03-18T16:43:59.996Z,100872.53
2019-03-18T16:46:28.618Z,100877.76
2019-03-18T16:48:59.896Z,100875.38
2019-03-18T16:51:32.234Z,100880.23
2019-03-18T16:54:06.438Z,100882.22
2019-03-18T16:56:37.470Z,100888.63
2019-03-18T16:59:16.311Z,100886.78
2019-03-18T17:01:48.455Z,100884.98
2019-03-18T17:04:18.179Z,100886.82
2019-03-18T17:06:49.856Z,100881.48
2019-03-18T17:09:18.871Z,100885.88
2019-03-18T17:11:58.025Z,100894.86
2019-03-18T17:14:27.772Z,100895.35
2019-03-18T17:16:57.007Z,100901.36
2019-03-18T17:19:26.744Z,100902.58
2019-03-18T17:21:56.855Z,100911.75
2019-03-18T17:24:27.590Z,100915.58
2019-03-18T17:26:57.138Z,100914.74
2019-03-18T17:29:26.966Z,100917.09
2019-03-18T17:31:56.107Z,100921.58
2019-03-18T17:34:24.861Z,100933.04
2019-03-18T17:36:55.364Z,100930.69
2019-03-18T17:39:24.997Z,100940.47
2019-03-18T17:41:56.895Z,100941.62
2019-03-18T17:44:25.981Z,100950.63
2019-03-18T17:46:56.996Z,100944.30
2019-03-18T17:49:26.156Z,100951.81
2019-03-18T17:51:58.194Z,100952.16
2019-03-18T17:54:27.179Z,100964.94
2019-03-18T17:57:07.073Z,100972.05
2019-03-18T17:59:32.930Z,100974.71
2019-03-18T18:02:01.779Z,100965.75
2019-03-18T18:04:30.371Z,100974.34
2019-03-18T18:06:59.002Z,100980.86
2019-03-18T18:09:27.599Z,100985.94
2019-03-18T18:11:56.312Z,100986.11
2019-03-18T18:14:24.935Z,100989.75
2019-03-18T18:16:53.666Z,100998.92
2019-03-18T18:19:22.271Z,100992.44
2019-03-18T18:21:50.890Z,100998.30
2019-03-18T18:24:19.522Z,101004.34
2019-03-18T18:26:48.147Z,100992.74
2019-03-18T18:29:16.784Z,101001.44
2019-03-18T18:31:45.463Z,101012.41
2019-03-18T18:34:14.103Z,101012.55
2019-03-18T18:36:42.745Z,101021.24
2019-03-18T18:39:11.351Z,101022.55
2019-03-18T18:41:39.950Z,101027.91
2019-03-18T18:44:08.563Z,101027.62
2019-03-18T18:46:37.209Z,101038.09
2019-03-18T18:49:05.847Z,101031.03
2019-03-18T18:51:34.465Z,101040.16
2019-03-18T18:54:03.084Z,101039.30
2019-03-18T18:56:31.825Z,101046.13
2019-03-18T18:59:00.539Z,101047.61
2019-03-18T19:01:29.146Z,101051.53
2019-03-18T19:03:57.883Z,101067.19
2019-03-18T19:06:26.479Z,101067.23
2019-03-18T19:08:55.086Z,101066.92
2019-03-18T19:11:23.678Z,101073.62
2019-03-18T19:13:52.313Z,101082.34
2019-03-18T19:16:20.940Z,101081.46
2019-03-18T19:18:53.398Z,101085.77
2019-03-18T19:21:23.580Z,101080.05
2019-03-18T19:23:54.110Z,101086.48
2019-03-18T19:26:23.907Z,101086.59
2019-03-18T19:28:54.482Z,101094.20
2019-03-18T19:31:24.988Z,101094.36
2019-03-18T19:33:56.512Z,101092.81
2019-03-18T19:36:27.394Z,101102.16
2019-03-18T19:38:58.395Z,101098.47
2019-03-18T19:41:32.878Z,101106.58
2019-03-18T19:44:05.352Z,101108.33
2019-03-18T19:46:35.044Z,101101.03
2019-03-18T19:49:05.754Z,101100.48
2019-03-18T19:51:35.430Z,101100.29
2019-03-18T19:54:04.714Z,101099.55
2019-03-18T19:56:33.788Z,101101.84
2019-03-18T19:59:05.099Z,101113.14
2019-03-18T20:01:36.582Z,101113.66
2019-03-18T20:04:07.614Z,101108.81
2019-03-18T20:06:37.263Z,101119.03
2019-03-18T20:09:08.197Z,101116.23
2019-03-18T20:11:37.268Z,101124.20
2019-03-18T20:14:09.918Z,101125.06
2019-03-18T20:16:40.505Z,101125.33
2019-03-18T20:19:12.610Z,101137.20
2019-03-18T20:21:42.209Z,101138.53
2019-03-18T20:24:10.829Z,101143.68
2019-03-18T20:26:40.234Z,101146.61
2019-03-18T20:29:11.854Z,101138.59
2019-03-18T20:31:44.679Z,101147.88
2019-03-18T20:34:17.886Z,101145.16
2019-03-18T20:36:47.233Z,101146.55
2019-03-18T20:39:20.916Z,101144.64
2019-03-18T20:41:50.739Z,101143.76
2019-03-18T20:44:23.561Z,101150.42
2019-03-18T20:46:55.198Z,101153.09
2019-03-18T20:49:24.299Z,101156.34
2019-03-18T20:51:53.575Z,101159.08
2019-03-18T20:54:24.788Z,101162.03
2019-03-18T20:56:54.179Z,101166.84
2019-03-18T20:59:25.540Z,101169.70
2019-03-18T21:01:58.482Z,101170.02
2019-03-18T21:04:29.034Z,101175.26
2019-03-18T21:07:02.418Z,101179.20
2019-03-18T21:09:36.324Z,101186.21
2019-03-18T21:12:06.138Z,101181.39
2019-03-18T21:14:35.135Z,101187.45
2019-03-18T21:17:05.909Z,101192.03
2019-03-18T21:19:36.389Z,101192.33
2019-03-18T21:22:07.830Z,101195.98
2019-03-18T21:24:36.727Z,101201.34
2019-03-18T21:27:06.367Z,101198.55
2019-03-18T21:29:37.107Z,101206.39
2019-03-18T21:32:07.896Z,101200.20
2019-03-18T21:34:38.188Z,101206.71
2019-03-18T21:37:06.943Z,101202.52
2019-03-18T21:39:36.295Z,101216.09
2019-03-18T21:42:08.543Z,101212.38
2019-03-18T21:44:38.033Z,101217.02
2019-03-18T21:47:07.235Z,101217.13
2019-03-18T21:49:37.177Z,101218.34
2019-03-18T21:52:07.368Z,101228.80
2019-03-18T21:54:38.942Z,101236.23
2019-03-18T21:57:10.348Z,101236.50
2019-03-18T21:59:52.070Z,101237.00
2019-03-18T22:02:25.117Z,101238.30
2019-03-18T22:04:57.426Z,101236.28
2019-03-18T22:07:31.626Z,101234.46
2019-03-18T22:10:09.826Z,101236.39
2019-03-18T22:12:41.225Z,101237.95
2019-03-18T22:15:11.324Z,101241.30
2019-03-18T22:17:42.262Z,101244.05
2019-03-18T22:20:35.507Z,101245.98
2019-03-18T22:23:08.870Z,101254.09
2019-03-18T22:25:38.495Z,101252.05
2019-03-18T22:28:10.576Z,101252.55
2019-03-18T22:30:45.184Z,101252.05
2019-03-18T22:33:15.349Z,101253.72
2019-03-18T22:35:48.330Z,101249.59
2019-03-18T22:38:22.582Z,101252.94
2019-03-18T22:40:53.983Z,101256.06
2019-03-18T22:43:25.182Z,101255.09
2019-03-18T22:45:53.718Z,101259.66
2019-03-18T22:48:22.570Z,101261.36
2019-03-18T22:50:51.318Z,101259.44
2019-03-18T22:53:27.669Z,101253.56
2019-03-18T22:55:59.066Z,101258.11
2019-03-18T22:58:28.260Z,101262.18
2019-03-18T23:01:07.023Z,101267.97
2019-03-18T23:03:36.438Z,101268.80
2019-03-18T23:06:07.210Z,101273.23
2019-03-18T23:08:36.942Z,101265.94
2019-03-18T23:11:08.758Z,101269.40
2019-03-18T23:13:39.462Z,101266.67
2019-03-18T23:16:15.075Z,101263.27
2019-03-18T23:18:50.394Z,101269.61
2019-03-18T23:21:19.648Z,101272.62
2019-03-18T23:23:48.432Z,101279.09
2019-03-18T23:26:18.722Z,101281.64
2019-03-18T23:28:47.334Z,101276.70
2019-03-18T23:31:15.985Z,101282.02
2019-03-18T23:33:44.608Z,101285.45
2019-03-18T23:36:13.243Z,101279.14
2019-03-18T23:38:41.890Z,101283.41
2019-03-18T23:41:10.528Z,101291.52
2019-03-18T23:43:39.287Z,101287.81
2019-03-18T23:46:07.931Z,101287.22
2019-03-18T23:48:36.535Z,101287.56
2019-03-18T23:51:05.130Z,101291.27
2019-03-18T23:53:33.792Z,101298.27
2019-03-18T23:56:02.414Z,101296.23
2019-03-18T23:58:31.112Z,101293.12
